createdAt,value
2024-05-09T00:00:29.914Z,75.6652
2024-05-09T00:01:23.495Z,75.8737
2024-05-09T00:02:25.312Z,76.2720
2024-05-09T00:03:27.051Z,76.6740
2024-05-09T00:04:28.728Z,76.8759
2024-05-09T00:05:30.608Z,77.0362
2024-05-09T00:06:32.320Z,77.0751
2024-05-09T00:07:34.060Z,77.0335
2024-05-09T00:08:35.879Z,77.0477
2024-05-09T00:09:37.882Z,77.1223
2024-05-09T00:10:40.657Z,77.2339
2024-05-09T00:11:40.678Z,77.3901
2024-05-09T00:12:42.439Z,77.5078
2024-05-09T00:13:44.338Z,77.5764
2024-05-09T00:14:45.960Z,77.5922
2024-05-09T00:15:47.589Z,77.6232
2024-05-09T00:16:49.312Z,77.6711
2024-05-09T00:17:51.634Z,77.7638
2024-05-09T00:18:54.297Z,77.8808
2024-05-09T00:19:56.166Z,77.9826
2024-05-09T00:20:57.942Z,78.0262
2024-05-09T00:21:59.640Z,78.0560
2024-05-09T00:23:01.458Z,78.0199
2024-05-09T00:24:03.233Z,77.8819
2024-05-09T00:25:04.871Z,77.8141
2024-05-09T00:26:06.634Z,77.7645
2024-05-09T00:27:08.945Z,77.7689
2024-05-09T00:28:09.131Z,77.8052
2024-05-09T00:29:10.778Z,77.7598
2024-05-09T00:30:17.824Z,77.7259
2024-05-09T00:31:14.527Z,77.7301
2024-05-09T00:32:16.362Z,77.7494
2024-05-09T00:33:18.377Z,77.7661
2024-05-09T00:34:20.327Z,77.7374
2024-05-09T00:35:22.266Z,77.6527
2024-05-09T00:36:24.240Z,77.5714
2024-05-09T00:37:26.051Z,77.5030
2024-05-09T00:38:27.868Z,77.4788
2024-05-09T00:39:29.614Z,77.4736
2024-05-09T00:40:38.586Z,77.5369
2024-05-09T00:41:33.413Z,77.6325
2024-05-09T00:42:35.178Z,77.6825
2024-05-09T00:43:36.948Z,77.7338
2024-05-09T00:44:38.662Z,77.7195
2024-05-09T00:45:40.423Z,77.7623
2024-05-09T00:46:42.141Z,77.8735
2024-05-09T00:47:44.441Z,77.9828
2024-05-09T00:48:46.464Z,78.1039
2024-05-09T00:49:48.497Z,78.2763
2024-05-09T00:50:50.305Z,78.4788
2024-05-09T00:51:52.211Z,78.6328
2024-05-09T00:52:53.846Z,78.7900
2024-05-09T00:53:55.938Z,78.9499
2024-05-09T00:54:57.638Z,79.0972
2024-05-09T00:55:59.404Z,79.2229
2024-05-09T00:57:01.057Z,79.3390
2024-05-09T00:58:02.881Z,79.4639
2024-05-09T00:59:04.672Z,79.5469
2024-05-09T01:00:12.079Z,79.6270
2024-05-09T01:01:08.561Z,79.7767
2024-05-09T01:02:10.440Z,79.8463
2024-05-09T01:03:13.904Z,79.9342
2024-05-09T01:04:13.581Z,80.0333
2024-05-09T01:05:15.394Z,80.2619
2024-05-09T01:06:17.269Z,80.5526
2024-05-09T01:07:19.051Z,81.4840
2024-05-09T01:08:21.045Z,81.8684
2024-05-09T01:09:22.911Z,81.4559
2024-05-09T01:10:32.210Z,81.2824
2024-05-09T01:11:26.917Z,81.2282
2024-05-09T01:12:28.846Z,81.2254
2024-05-09T01:13:30.538Z,81.2522
2024-05-09T01:14:32.444Z,81.2644
2024-05-09T01:15:34.215Z,81.3456
2024-05-09T01:16:36.162Z,81.3975
2024-05-09T01:17:38.082Z,81.4637
2024-05-09T01:18:40.032Z,81.5279
2024-05-09T01:19:41.941Z,81.6334
2024-05-09T01:20:45.313Z,81.6812
2024-05-09T01:21:44.676Z,81.7372
2024-05-09T01:22:46.423Z,81.7959
2024-05-09T01:23:48.115Z,81.8522
2024-05-09T01:24:49.977Z,81.9135
2024-05-09T01:25:51.679Z,81.9752
2024-05-09T01:26:53.472Z,82.0362
2024-05-09T01:27:55.223Z,82.0878
2024-05-09T01:28:56.972Z,82.1477
2024-05-09T01:29:58.748Z,82.1584
2024-05-09T01:31:00.464Z,82.2014
2024-05-09T01:32:02.320Z,82.2360
2024-05-09T01:33:04.957Z,82.2581
2024-05-09T01:34:04.937Z,82.2792
2024-05-09T01:35:06.653Z,82.3035
2024-05-09T01:36:08.594Z,82.3274
2024-05-09T01:37:10.363Z,82.3949
2024-05-09T01:38:12.312Z,82.4175
2024-05-09T01:39:14.209Z,82.4382
2024-05-09T01:40:21.961Z,82.4559
2024-05-09T01:41:18.078Z,82.4688
2024-05-09T01:42:19.782Z,82.4795
2024-05-09T01:43:21.590Z,82.4958
2024-05-09T01:44:23.412Z,82.5258
2024-05-09T01:45:25.116Z,82.5467
2024-05-09T01:46:26.846Z,82.5638
2024-05-09T01:47:28.632Z,82.5868
2024-05-09T01:48:30.463Z,82.5936
2024-05-09T01:49:32.277Z,82.6217
2024-05-09T01:50:39.108Z,82.6330
2024-05-09T01:51:36.288Z,82.6430
2024-05-09T01:52:38.030Z,82.6600
2024-05-09T01:53:39.856Z,82.6836
2024-05-09T01:54:41.617Z,82.6982
2024-05-09T01:55:43.591Z,82.7077
2024-05-09T01:56:45.406Z,82.7199
2024-05-09T01:57:47.157Z,82.7299
2024-05-09T01:58:48.926Z,82.7498
2024-05-09T01:59:50.692Z,82.7662
2024-05-09T02:00:52.616Z,82.7800
2024-05-09T02:01:57.004Z,82.7873
2024-05-09T02:02:56.921Z,82.7972
2024-05-09T02:03:59.065Z,82.7988
2024-05-09T02:05:01.239Z,82.7960
2024-05-09T02:06:03.162Z,82.7897
2024-05-09T02:07:04.930Z,82.7993
2024-05-09T02:08:06.717Z,82.8078
2024-05-09T02:09:08.370Z,82.8122
2024-05-09T02:10:16.533Z,82.8201
2024-05-09T02:11:12.442Z,82.8489
2024-05-09T02:12:14.608Z,82.8460
2024-05-09T02:13:16.729Z,82.8563
2024-05-09T02:14:18.552Z,82.8625
2024-05-09T02:15:20.287Z,82.8698
2024-05-09T02:16:22.044Z,82.8790
2024-05-09T02:17:23.908Z,82.8886
2024-05-09T02:18:25.807Z,82.8919
2024-05-09T02:19:27.710Z,82.9117
2024-05-09T02:20:34.185Z,82.9233
2024-05-09T02:21:31.831Z,82.9400
2024-05-09T02:22:33.569Z,82.9486
2024-05-09T02:23:35.353Z,82.9523
2024-05-09T02:24:37.137Z,82.9506
2024-05-09T02:25:38.891Z,82.9610
2024-05-09T02:26:40.752Z,82.9719
2024-05-09T02:27:42.458Z,82.9861
2024-05-09T02:28:44.161Z,83.0058
2024-05-09T02:29:45.825Z,83.0277
2024-05-09T02:30:47.560Z,83.0348
2024-05-09T02:31:49.542Z,83.0380
2024-05-09T02:32:51.450Z,83.0432
2024-05-09T02:33:53.438Z,83.0537
2024-05-09T02:34:55.393Z,83.0647
2024-05-09T02:35:57.083Z,83.0780
2024-05-09T02:36:58.910Z,83.0847
2024-05-09T02:38:00.953Z,83.0903
2024-05-09T02:39:02.740Z,83.1019
2024-05-09T02:40:05.648Z,83.1089
2024-05-09T02:41:04.770Z,83.1131
2024-05-09T02:42:06.455Z,83.1200
2024-05-09T02:43:09.314Z,83.1329
2024-05-09T02:44:09.750Z,83.1418
2024-05-09T02:45:11.698Z,83.1339
2024-05-09T02:46:13.411Z,83.1322
2024-05-09T02:47:15.248Z,83.1263
2024-05-09T02:48:17.056Z,83.1227
2024-05-09T02:49:19.112Z,83.1064
2024-05-09T02:50:29.712Z,83.0908
2024-05-09T02:51:23.179Z,83.0887
2024-05-09T02:52:24.921Z,83.0622
2024-05-09T02:53:26.819Z,83.0287
2024-05-09T02:54:28.538Z,83.0112
2024-05-09T02:55:30.254Z,82.9940
2024-05-09T02:56:32.005Z,82.9747
2024-05-09T02:57:33.781Z,82.9476
2024-05-09T02:58:35.485Z,82.8911
2024-05-09T02:59:37.326Z,82.8566
2024-05-09T03:00:41.505Z,82.8397
2024-05-09T03:01:39.332Z,82.8270
2024-05-09T03:02:41.117Z,82.8073
2024-05-09T03:03:43.109Z,82.7902
2024-05-09T03:04:45.175Z,82.7731
2024-05-09T03:05:47.147Z,82.7279
2024-05-09T03:06:48.949Z,82.6686
2024-05-09T03:07:50.746Z,82.6331
2024-05-09T03:08:52.511Z,82.5957
2024-05-09T03:09:54.220Z,82.5656
2024-05-09T03:10:56.139Z,82.5341
2024-05-09T03:11:57.951Z,82.5378
2024-05-09T03:12:59.815Z,82.5286
2024-05-09T03:14:01.574Z,82.5214
2024-05-09T03:15:03.324Z,82.5208
2024-05-09T03:16:05.126Z,82.5250
2024-05-09T03:17:07.018Z,82.5313
2024-05-09T03:18:08.885Z,82.5337
2024-05-09T03:19:11.018Z,82.5506
2024-05-09T03:20:20.483Z,82.5583
2024-05-09T03:21:14.974Z,82.5711
2024-05-09T03:22:16.612Z,82.5811
2024-05-09T03:23:18.428Z,82.5805
2024-05-09T03:24:20.137Z,82.5727
2024-05-09T03:25:21.872Z,82.5971
2024-05-09T03:26:23.804Z,82.6224
2024-05-09T03:27:25.580Z,82.6549
2024-05-09T03:28:27.248Z,82.6825
2024-05-09T03:29:29.009Z,82.6977
2024-05-09T03:30:39.419Z,82.6958
2024-05-09T03:31:32.855Z,82.7183
2024-05-09T03:32:34.688Z,82.7317
2024-05-09T03:33:36.860Z,82.7517
2024-05-09T03:34:39.023Z,82.7506
2024-05-09T03:35:40.936Z,82.7605
2024-05-09T03:36:42.727Z,82.7782
2024-05-09T03:37:44.465Z,82.7922
2024-05-09T03:38:46.260Z,82.8080
2024-05-09T03:39:47.927Z,82.8330
2024-05-09T03:40:50.371Z,82.8498
2024-05-09T03:41:50.051Z,82.8558
2024-05-09T03:42:51.818Z,82.8626
2024-05-09T03:43:53.589Z,82.8752
2024-05-09T03:44:55.309Z,82.8954
2024-05-09T03:45:57.044Z,82.9026
2024-05-09T03:46:58.972Z,82.9170
2024-05-09T03:48:00.816Z,82.9389
2024-05-09T03:49:02.787Z,82.9637
2024-05-09T03:50:05.608Z,82.9854
2024-05-09T03:51:05.037Z,83.0104
2024-05-09T03:52:06.782Z,83.0313
2024-05-09T03:53:08.582Z,83.0596
2024-05-09T03:54:10.223Z,83.0727
2024-05-09T03:55:12.042Z,83.0933
2024-05-09T03:56:13.777Z,83.1030
2024-05-09T03:57:15.549Z,83.1189
2024-05-09T03:58:17.261Z,83.1306
2024-05-09T03:59:19.060Z,83.1282
2024-05-09T04:00:30.463Z,83.1268
2024-05-09T04:01:22.876Z,83.1344
2024-05-09T04:02:24.641Z,83.1398
2024-05-09T04:03:26.878Z,83.1493
2024-05-09T04:04:28.902Z,83.1643
2024-05-09T04:05:30.918Z,83.1721
2024-05-09T04:06:32.973Z,83.1897
2024-05-09T04:07:34.698Z,83.2001
2024-05-09T04:08:36.605Z,83.2156
2024-05-09T04:09:38.544Z,83.2245
2024-05-09T04:10:40.317Z,83.2390
2024-05-09T04:11:42.140Z,83.2455
2024-05-09T04:12:43.855Z,83.2549
2024-05-09T04:13:45.636Z,83.2581
2024-05-09T04:14:47.429Z,83.2684
2024-05-09T04:15:49.171Z,83.2742
2024-05-09T04:16:50.935Z,83.2976
2024-05-09T04:17:52.877Z,83.3111
2024-05-09T04:18:54.834Z,83.2993
2024-05-09T04:19:56.574Z,83.2682
2024-05-09T04:20:58.328Z,83.2762
2024-05-09T04:22:00.052Z,83.2922
2024-05-09T04:23:01.811Z,83.3071
2024-05-09T04:24:03.597Z,83.2937
2024-05-09T04:25:05.290Z,83.2822
2024-05-09T04:26:07.068Z,83.2785
2024-05-09T04:27:08.760Z,83.2832
2024-05-09T04:28:10.485Z,83.2928
2024-05-09T04:29:12.443Z,83.3127
2024-05-09T04:30:21.702Z,83.3359
2024-05-09T04:31:16.289Z,83.3714
2024-05-09T04:32:18.037Z,83.3994
2024-05-09T04:33:20.345Z,83.4279
2024-05-09T04:34:22.671Z,83.4487
2024-05-09T04:35:24.767Z,83.4632
2024-05-09T04:36:26.594Z,83.4955
2024-05-09T04:37:28.308Z,83.5270
2024-05-09T04:38:30.028Z,83.5510
2024-05-09T04:39:31.855Z,83.5737
2024-05-09T04:40:36.199Z,83.5926
2024-05-09T04:41:36.356Z,83.6185
2024-05-09T04:42:38.126Z,83.6292
2024-05-09T04:43:39.810Z,83.6590
2024-05-09T04:44:41.657Z,83.7011
2024-05-09T04:45:43.364Z,83.7271
2024-05-09T04:46:45.177Z,83.7454
2024-05-09T04:47:47.067Z,83.7767
2024-05-09T04:48:49.101Z,83.7946
2024-05-09T04:49:51.035Z,83.8271
2024-05-09T04:50:52.840Z,83.8410
2024-05-09T04:51:54.603Z,83.8656
2024-05-09T04:52:56.387Z,83.8877
2024-05-09T04:53:58.106Z,83.9160
2024-05-09T04:54:59.899Z,83.9446
2024-05-09T04:56:01.672Z,83.9894
2024-05-09T04:57:03.406Z,84.0229
2024-05-09T04:58:05.082Z,84.0604
2024-05-09T04:59:06.972Z,84.0967
2024-05-09T05:00:14.611Z,84.1429
2024-05-09T05:01:10.849Z,84.1978
2024-05-09T05:02:12.821Z,84.2276
2024-05-09T05:03:16.029Z,84.2627
2024-05-09T05:04:15.855Z,84.3051
2024-05-09T05:05:17.902Z,84.3277
2024-05-09T05:06:19.824Z,84.3689
2024-05-09T05:07:21.574Z,84.4101
2024-05-09T05:08:23.417Z,84.4479
2024-05-09T05:09:25.128Z,84.5080
2024-05-09T05:10:33.592Z,84.5402
2024-05-09T05:11:29.145Z,84.5649
2024-05-09T05:12:31.163Z,84.5886
2024-05-09T05:13:33.143Z,84.6164
2024-05-09T05:14:34.954Z,84.6449
2024-05-09T05:15:36.771Z,84.6810
2024-05-09T05:16:38.514Z,84.7199
2024-05-09T05:17:40.555Z,84.7575
2024-05-09T05:18:42.475Z,84.7897
2024-05-09T05:19:44.543Z,84.8182
2024-05-09T05:20:46.531Z,84.8461
2024-05-09T05:21:48.395Z,84.8833
2024-05-09T05:22:50.246Z,84.9369
2024-05-09T05:23:52.049Z,84.9962
2024-05-09T05:24:53.841Z,85.0733
2024-05-09T05:25:55.991Z,85.1686
2024-05-09T05:26:57.937Z,85.2569
2024-05-09T05:27:59.688Z,85.3349
2024-05-09T05:29:01.528Z,85.4050
2024-05-09T05:30:03.576Z,85.4759
2024-05-09T05:31:04.764Z,85.5362
2024-05-09T05:32:06.652Z,85.5863
2024-05-09T05:33:08.585Z,85.6324
2024-05-09T05:34:10.485Z,85.6682
2024-05-09T05:35:12.340Z,85.7007
2024-05-09T05:36:14.099Z,85.7251
2024-05-09T05:37:15.912Z,85.7437
2024-05-09T05:38:17.968Z,85.7549
2024-05-09T05:39:19.894Z,85.7688
2024-05-09T05:40:28.354Z,85.7847
2024-05-09T05:41:23.850Z,85.8081
2024-05-09T05:42:25.603Z,85.8323
2024-05-09T05:43:27.468Z,85.8743
2024-05-09T05:44:29.299Z,85.9157
2024-05-09T05:45:31.118Z,85.9537
2024-05-09T05:46:32.879Z,86.0017
2024-05-09T05:47:34.971Z,86.0727
2024-05-09T05:48:37.145Z,86.1372
2024-05-09T05:49:39.096Z,86.2053
2024-05-09T05:50:41.072Z,86.2697
2024-05-09T05:51:42.840Z,86.3299
2024-05-09T05:52:44.645Z,86.3757
2024-05-09T05:53:46.575Z,86.4178
2024-05-09T05:54:48.363Z,86.4538
2024-05-09T05:55:50.206Z,86.4792
2024-05-09T05:56:52.056Z,86.4989
2024-05-09T05:57:53.853Z,86.5122
2024-05-09T05:58:55.660Z,86.5262
2024-05-09T05:59:57.429Z,86.5414
2024-05-09T06:00:59.230Z,86.5657
2024-05-09T06:02:01.193Z,86.5846
2024-05-09T06:03:03.143Z,86.6000
2024-05-09T06:04:05.076Z,86.6020
2024-05-09T06:05:06.872Z,86.6015
2024-05-09T06:06:08.631Z,86.6095
2024-05-09T06:07:10.417Z,86.6225
2024-05-09T06:08:12.392Z,86.6406
2024-05-09T06:09:14.326Z,86.6670
2024-05-09T06:10:21.466Z,86.6959
2024-05-09T06:11:18.321Z,86.7354
2024-05-09T06:12:20.165Z,86.7694
2024-05-09T06:13:21.995Z,86.8206
2024-05-09T06:14:23.852Z,86.8810
2024-05-09T06:15:25.861Z,86.9365
2024-05-09T06:16:27.614Z,86.9943
2024-05-09T06:17:29.493Z,87.0621
2024-05-09T06:18:31.502Z,87.1371
2024-05-09T06:19:33.702Z,87.2107
2024-05-09T06:20:37.903Z,87.2939
2024-05-09T06:21:37.823Z,87.3781
2024-05-09T06:22:39.603Z,87.4527
2024-05-09T06:23:41.363Z,87.5343
2024-05-09T06:24:43.178Z,87.6225
2024-05-09T06:25:45.099Z,87.7080
2024-05-09T06:26:46.868Z,87.7979
2024-05-09T06:27:48.669Z,87.8965
2024-05-09T06:28:50.523Z,87.9974
2024-05-09T06:29:52.286Z,88.0952
2024-05-09T06:30:54.058Z,88.1933
2024-05-09T06:31:59.523Z,88.2923
2024-05-09T06:32:56.367Z,88.3919
2024-05-09T06:33:58.382Z,88.4825
2024-05-09T06:35:00.296Z,88.5731
2024-05-09T06:36:02.050Z,88.6572
2024-05-09T06:37:03.816Z,88.7324
2024-05-09T06:38:05.696Z,88.8113
2024-05-09T06:39:07.517Z,88.8838
2024-05-09T06:40:10.081Z,88.9519
2024-05-09T06:41:09.317Z,89.0107
2024-05-09T06:42:11.077Z,89.0684
2024-05-09T06:43:12.970Z,89.1260
2024-05-09T06:44:14.793Z,89.1752
2024-05-09T06:45:16.587Z,89.2223
2024-05-09T06:46:18.386Z,89.2683
2024-05-09T06:47:20.358Z,89.3102
2024-05-09T06:48:22.944Z,89.3502
2024-05-09T06:49:22.475Z,89.3950
2024-05-09T06:50:28.146Z,89.4357
2024-05-09T06:51:26.480Z,89.4770
2024-05-09T06:52:28.307Z,89.5064
2024-05-09T06:53:30.105Z,89.5299
2024-05-09T06:54:31.890Z,89.5499
2024-05-09T06:55:33.742Z,89.5704
2024-05-09T06:56:35.575Z,89.5962
2024-05-09T06:57:39.179Z,89.6230
2024-05-09T06:58:37.698Z,89.6537
2024-05-09T06:59:39.484Z,89.6868
2024-05-09T07:00:42.216Z,89.7199
2024-05-09T07:01:41.524Z,89.7536
2024-05-09T07:02:43.365Z,89.7839
2024-05-09T07:03:45.238Z,89.8126
2024-05-09T07:04:47.199Z,89.8501
2024-05-09T07:05:49.865Z,89.8859
2024-05-09T07:06:49.127Z,89.9222
2024-05-09T07:07:50.935Z,89.9547
2024-05-09T07:08:52.863Z,89.9928
2024-05-09T07:09:54.666Z,90.0298
2024-05-09T07:10:56.506Z,90.0607
2024-05-09T07:11:58.370Z,90.1056
2024-05-09T07:13:00.180Z,90.1405
2024-05-09T07:14:02.001Z,90.1762
2024-05-09T07:15:03.814Z,90.2078
2024-05-09T07:16:05.591Z,90.2367
2024-05-09T07:17:07.521Z,90.2705
2024-05-09T07:18:09.524Z,90.2973
2024-05-09T07:19:11.612Z,90.3242
2024-05-09T07:20:23.027Z,90.3578
2024-05-09T07:21:15.776Z,90.3914
2024-05-09T07:22:17.653Z,90.4115
2024-05-09T07:23:19.655Z,90.4376
2024-05-09T07:24:21.725Z,90.4544
2024-05-09T07:25:23.521Z,90.4709
2024-05-09T07:26:25.385Z,90.4855
2024-05-09T07:27:27.207Z,90.4965
2024-05-09T07:28:28.968Z,90.5059
2024-05-09T07:29:30.847Z,90.5081
2024-05-09T07:30:34.399Z,90.5043
2024-05-09T07:31:34.233Z,90.4966
2024-05-09T07:32:36.141Z,90.4817
2024-05-09T07:33:37.957Z,90.4699
2024-05-09T07:34:39.841Z,90.4516
2024-05-09T07:35:41.669Z,90.4360
2024-05-09T07:36:43.393Z,90.4218
2024-05-09T07:37:45.218Z,90.4146
2024-05-09T07:38:46.997Z,90.3986
2024-05-09T07:39:48.795Z,90.3888
2024-05-09T07:40:50.637Z,90.3871
2024-05-09T07:41:52.522Z,90.3850
2024-05-09T07:42:54.290Z,90.3911
2024-05-09T07:43:56.089Z,90.3970
2024-05-09T07:45:14.551Z,90.4064
2024-05-09T07:46:28.567Z,90.4266
2024-05-09T07:53:29.268Z,90.4657
2024-05-09T07:53:37.744Z,90.4677
2024-05-09T07:54:17.031Z,90.4671
2024-05-09T07:55:19.220Z,90.4617
2024-05-09T07:56:22.831Z,90.4602
2024-05-09T07:57:23.109Z,90.4606
2024-05-09T07:58:24.898Z,90.4583
2024-05-09T07:59:26.656Z,90.4590
2024-05-09T08:00:31.516Z,90.4536
2024-05-09T08:01:28.882Z,90.4551
2024-05-09T08:02:30.841Z,90.4503
2024-05-09T08:03:32.976Z,90.4459
2024-05-09T08:04:35.015Z,90.4419
2024-05-09T08:05:37.095Z,90.4312
2024-05-09T08:06:39.097Z,90.4200
2024-05-09T08:07:40.952Z,90.4073
2024-05-09T08:08:42.799Z,90.3899
2024-05-09T08:09:44.665Z,90.3764
2024-05-09T08:10:46.602Z,90.3603
2024-05-09T08:11:48.490Z,90.3388
2024-05-09T08:12:50.487Z,90.3200
2024-05-09T08:13:52.246Z,90.3037
2024-05-09T08:14:54.086Z,90.2859
2024-05-09T08:15:55.945Z,90.2702
2024-05-09T08:16:57.763Z,90.2597
2024-05-09T08:17:59.783Z,90.2509
2024-05-09T08:19:01.731Z,90.2446
2024-05-09T08:20:05.432Z,90.2408
2024-05-09T08:21:04.678Z,90.2454
2024-05-09T08:22:06.794Z,90.2399
2024-05-09T08:23:08.754Z,90.2343
2024-05-09T08:24:10.723Z,90.2303
2024-05-09T08:25:14.161Z,90.2229
2024-05-09T08:26:13.586Z,90.2250
2024-05-09T08:27:15.411Z,90.2170
2024-05-09T08:28:17.388Z,90.2218
2024-05-09T08:29:19.264Z,90.2328
2024-05-09T08:30:25.482Z,90.2467
2024-05-09T08:31:23.554Z,90.2637
2024-05-09T08:32:25.402Z,90.2768
2024-05-09T08:33:27.396Z,90.2895
2024-05-09T08:34:29.480Z,90.3136
2024-05-09T08:35:31.484Z,90.3406
2024-05-09T08:36:33.554Z,90.3704
2024-05-09T08:37:38.783Z,90.3945
2024-05-09T08:38:37.443Z,90.4261
2024-05-09T08:39:39.267Z,90.4411
2024-05-09T08:40:41.259Z,90.4642
2024-05-09T08:41:43.181Z,90.4784
2024-05-09T08:42:45.040Z,90.4895
2024-05-09T08:43:46.910Z,90.4957
2024-05-09T08:44:48.829Z,90.4971
2024-05-09T08:45:50.737Z,90.4914
2024-05-09T08:46:52.533Z,90.4787
2024-05-09T08:47:54.438Z,90.4607
2024-05-09T08:48:56.351Z,90.4326
2024-05-09T08:49:58.280Z,90.4018
2024-05-09T08:51:00.161Z,90.3620
2024-05-09T08:52:02.059Z,90.3213
2024-05-09T08:53:03.888Z,90.2808
2024-05-09T08:54:05.696Z,90.2419
2024-05-09T08:55:07.617Z,90.2070
2024-05-09T08:56:09.440Z,90.1747
2024-05-09T08:57:11.229Z,90.1477
2024-05-09T08:58:13.094Z,90.1252
2024-05-09T08:59:15.114Z,90.1054
2024-05-09T09:00:25.603Z,90.0829
2024-05-09T09:01:19.327Z,90.0707
2024-05-09T09:02:21.492Z,90.0512
2024-05-09T09:03:23.528Z,90.0419
2024-05-09T09:04:25.557Z,90.0295
2024-05-09T09:05:27.792Z,90.0082
2024-05-09T09:06:29.682Z,89.9882
2024-05-09T09:07:31.635Z,89.9765
2024-05-09T09:08:33.548Z,89.9622
2024-05-09T09:09:35.360Z,89.9620
2024-05-09T09:10:37.251Z,89.9772
2024-05-09T09:11:38.998Z,90.0107
2024-05-09T09:12:40.788Z,90.0499
2024-05-09T09:13:42.635Z,90.0964
2024-05-09T09:14:44.476Z,90.1358
2024-05-09T09:15:46.387Z,90.1748
2024-05-09T09:16:48.165Z,90.2083
2024-05-09T09:17:50.067Z,90.2444
2024-05-09T09:18:52.477Z,90.2683
2024-05-09T09:19:54.822Z,90.2886
2024-05-09T09:20:56.802Z,90.3055
2024-05-09T09:21:58.558Z,90.3188
2024-05-09T09:23:00.613Z,90.3319
2024-05-09T09:24:02.456Z,90.3436
2024-05-09T09:25:04.394Z,90.3604
2024-05-09T09:26:06.288Z,90.3766
2024-05-09T09:27:08.051Z,90.3934
2024-05-09T09:28:10.129Z,90.4030
2024-05-09T09:29:12.004Z,90.4168
2024-05-09T09:30:27.680Z,90.4122
2024-05-09T09:31:16.122Z,90.4016
2024-05-09T09:32:18.110Z,90.3695
2024-05-09T09:33:19.994Z,90.3271
2024-05-09T09:34:22.040Z,90.2697
2024-05-09T09:35:23.852Z,90.1994
2024-05-09T09:36:25.809Z,90.1276
2024-05-09T09:37:27.608Z,90.0483
2024-05-09T09:38:29.651Z,89.9739
2024-05-09T09:39:31.520Z,89.9019
2024-05-09T09:40:35.902Z,89.8337
2024-05-09T09:41:35.590Z,89.7756
2024-05-09T09:42:37.439Z,89.7203
2024-05-09T09:43:39.404Z,89.6714
2024-05-09T09:44:42.373Z,89.6250
2024-05-09T09:45:41.326Z,89.5840
2024-05-09T09:46:43.147Z,89.5414
2024-05-09T09:47:45.211Z,89.5032
2024-05-09T09:48:47.332Z,89.4658
2024-05-09T09:49:49.235Z,89.4265
2024-05-09T09:50:51.190Z,89.3958
2024-05-09T09:51:53.137Z,89.3588
2024-05-09T09:52:54.972Z,89.3260
2024-05-09T09:53:56.766Z,89.3067
2024-05-09T09:54:56.918Z,89.2876
2024-05-09T09:55:58.652Z,89.2648
2024-05-09T09:57:00.452Z,89.2238
2024-05-09T09:58:02.461Z,89.1719
2024-05-09T09:59:04.281Z,89.0987
2024-05-09T10:00:09.571Z,89.0249
2024-05-09T10:01:08.829Z,88.9483
2024-05-09T10:02:10.994Z,88.8803
2024-05-09T10:03:13.314Z,88.8017
2024-05-09T10:04:15.309Z,88.7216
2024-05-09T10:05:17.222Z,88.6365
2024-05-09T10:06:19.118Z,88.5564
2024-05-09T10:07:21.187Z,88.4748
2024-05-09T10:08:23.119Z,88.4017
2024-05-09T10:09:25.036Z,88.3295
2024-05-09T10:10:31.728Z,88.2555
2024-05-09T10:11:29.534Z,88.1789
2024-05-09T10:12:31.554Z,88.1072
2024-05-09T10:13:33.450Z,88.0412
2024-05-09T10:14:35.396Z,87.9787
2024-05-09T10:15:37.429Z,87.9324
2024-05-09T10:16:39.234Z,87.8875
2024-05-09T10:17:41.296Z,87.8526
2024-05-09T10:18:43.570Z,87.8052
2024-05-09T10:19:45.798Z,87.7720
2024-05-09T10:20:47.675Z,87.7559
2024-05-09T10:21:49.737Z,87.7330
2024-05-09T10:22:51.740Z,87.7157
2024-05-09T10:23:53.806Z,87.6976
2024-05-09T10:24:55.740Z,87.6646
2024-05-09T10:25:57.584Z,87.6199
2024-05-09T10:26:59.438Z,87.5853
2024-05-09T10:28:01.480Z,87.5407
2024-05-09T10:29:03.584Z,87.4694
2024-05-09T10:30:11.504Z,87.3832
2024-05-09T10:31:07.964Z,87.3008
2024-05-09T10:32:09.958Z,87.2371
2024-05-09T10:33:12.180Z,87.1769
2024-05-09T10:34:14.289Z,87.1275
2024-05-09T10:35:16.284Z,87.0887
2024-05-09T10:36:18.173Z,87.0576
2024-05-09T10:37:20.280Z,87.0409
2024-05-09T10:38:22.124Z,87.0376
2024-05-09T10:39:24.053Z,87.0439
2024-05-09T10:40:31.096Z,87.0663
2024-05-09T10:41:28.396Z,87.1072
2024-05-09T10:42:30.308Z,87.1384
2024-05-09T10:43:32.420Z,87.1832
2024-05-09T10:44:34.424Z,87.2248
2024-05-09T10:45:36.467Z,87.2665
2024-05-09T10:46:38.298Z,87.3197
2024-05-09T10:47:40.324Z,87.3802
2024-05-09T10:48:42.562Z,87.4535
2024-05-09T10:49:44.564Z,87.5206
2024-05-09T10:50:46.399Z,87.5881
2024-05-09T10:51:48.380Z,87.6543
2024-05-09T10:52:50.463Z,87.7186
2024-05-09T10:53:52.298Z,87.7656
2024-05-09T10:54:54.482Z,87.8130
2024-05-09T10:55:56.402Z,87.8321
2024-05-09T10:56:58.199Z,87.8297
2024-05-09T10:58:00.333Z,87.8123
2024-05-09T10:59:02.296Z,87.7867
2024-05-09T11:00:06.307Z,87.7561
2024-05-09T11:01:06.662Z,87.7023
2024-05-09T11:02:06.752Z,87.6363
2024-05-09T11:03:08.797Z,87.5818
2024-05-09T11:04:10.775Z,87.5305
2024-05-09T11:05:12.941Z,87.4769
2024-05-09T11:06:14.905Z,87.4078
2024-05-09T11:07:17.076Z,87.3284
2024-05-09T11:08:18.923Z,87.2613
2024-05-09T11:09:20.867Z,87.1988
2024-05-09T11:10:55.334Z,87.0893
2024-05-09T11:11:57.365Z,87.0543
2024-05-09T11:12:59.445Z,87.0098
2024-05-09T11:14:01.295Z,86.9653
2024-05-09T11:15:03.240Z,86.9419
2024-05-09T11:16:05.361Z,86.9216
2024-05-09T11:17:07.430Z,86.9162
2024-05-09T11:18:09.319Z,86.9207
2024-05-09T11:19:11.276Z,86.9342
2024-05-09T11:20:19.660Z,86.9542
2024-05-09T11:21:15.712Z,86.9807
2024-05-09T11:22:17.769Z,86.9986
2024-05-09T11:23:19.717Z,86.9974
2024-05-09T11:24:21.525Z,86.9681
2024-05-09T11:25:23.489Z,86.9102
2024-05-09T11:26:25.605Z,86.8372
2024-05-09T11:27:27.465Z,86.7822
2024-05-09T11:28:29.273Z,86.7290
2024-05-09T11:29:31.103Z,86.6886
2024-05-09T11:30:32.917Z,86.6649
2024-05-09T11:31:35.019Z,86.6571
2024-05-09T11:32:37.066Z,86.6728
2024-05-09T11:33:39.403Z,86.6967
2024-05-09T11:34:41.547Z,86.7234
2024-05-09T11:35:43.543Z,86.7518
2024-05-09T11:36:45.589Z,86.7806
2024-05-09T11:37:47.414Z,86.8090
2024-05-09T11:38:49.519Z,86.8465
2024-05-09T11:39:51.553Z,86.8789
2024-05-09T11:40:53.428Z,86.8977
2024-05-09T11:41:55.409Z,86.9292
2024-05-09T11:42:57.347Z,86.9413
2024-05-09T11:43:59.197Z,86.9547
2024-05-09T11:45:01.313Z,86.9468
2024-05-09T11:46:03.783Z,86.9293
2024-05-09T11:47:03.573Z,86.9016
2024-05-09T11:48:05.707Z,86.8734
2024-05-09T11:49:07.885Z,86.8568
2024-05-09T11:50:15.999Z,86.8502
2024-05-09T11:51:11.904Z,86.8500
2024-05-09T11:52:13.991Z,86.8534
2024-05-09T11:53:16.054Z,86.8701
2024-05-09T11:54:17.860Z,86.9043
2024-05-09T11:55:19.903Z,86.9457
2024-05-09T11:56:22.010Z,86.9896
2024-05-09T11:57:23.957Z,87.0539
2024-05-09T11:58:25.796Z,87.1195
2024-05-09T11:59:27.618Z,87.1938
2024-05-09T12:00:36.513Z,87.2660
2024-05-09T12:01:32.385Z,87.3423
2024-05-09T12:02:34.414Z,87.3990
2024-05-09T12:03:36.628Z,87.4446
2024-05-09T12:04:38.785Z,87.4741
2024-05-09T12:05:41.065Z,87.5075
2024-05-09T12:06:43.222Z,87.5294
2024-05-09T12:07:45.160Z,87.5498
2024-05-09T12:08:46.956Z,87.5645
2024-05-09T12:09:48.929Z,87.5783
2024-05-09T12:10:50.885Z,87.5628
2024-05-09T12:11:53.131Z,87.5156
2024-05-09T12:12:55.278Z,87.4408
2024-05-09T12:13:57.329Z,87.3725
2024-05-09T12:14:59.291Z,87.3108
2024-05-09T12:16:01.260Z,87.2612
2024-05-09T12:17:03.427Z,87.2260
2024-05-09T12:18:05.505Z,87.2100
2024-05-09T12:19:07.588Z,87.1967
2024-05-09T12:20:17.425Z,87.1986
2024-05-09T12:21:11.776Z,87.2023
2024-05-09T12:22:13.719Z,87.2021
2024-05-09T12:23:15.644Z,87.2000
2024-05-09T12:24:18.531Z,87.1871
2024-05-09T12:25:18.113Z,87.1789
2024-05-09T12:26:20.028Z,87.1544
2024-05-09T12:27:22.167Z,87.1332
2024-05-09T12:28:24.168Z,87.1057
2024-05-09T12:29:26.199Z,87.0863
2024-05-09T12:30:35.771Z,87.0415
2024-05-09T12:31:30.577Z,86.9890
2024-05-09T12:32:32.657Z,86.9268
2024-05-09T12:33:34.729Z,86.8565